createdAt,value
2019-01-29T00:00:07.108Z,94.10
2019-01-29T00:02:35.648Z,94.05
2019-01-29T00:05:05.802Z,94.53
2019-01-29T00:07:34.284Z,94.54
2019-01-29T00:10:02.746Z,94.72
2019-01-29T00:12:31.246Z,94.69
2019-01-29T00:14:59.686Z,94.85
2019-01-29T00:17:28.138Z,94.92
2019-01-29T00:19:56.592Z,94.92
2019-01-29T00:22:33.058Z,94.72
2019-01-29T00:24:55.230Z,94.88
2019-01-29T00:27:23.705Z,94.48
2019-01-29T00:29:52.165Z,94.57
2019-01-29T00:32:20.629Z,94.31
2019-01-29T00:34:49.078Z,94.81
2019-01-29T00:37:17.554Z,94.77
2019-01-29T00:39:46.000Z,95.28
2019-01-29T00:42:14.462Z,95.42
2019-01-29T00:44:42.934Z,95.44
2019-01-29T00:47:11.361Z,94.68
2019-01-29T00:49:39.836Z,94.88
2019-01-29T00:52:08.282Z,95.04
2019-01-29T00:54:36.761Z,94.92
2019-01-29T00:57:05.207Z,94.62
2019-01-29T00:59:33.689Z,94.70
2019-01-29T01:02:02.139Z,94.92
2019-01-29T01:04:30.646Z,94.68
2019-01-29T01:06:59.081Z,95.58
2019-01-29T01:09:27.565Z,95.64
2019-01-29T01:11:55.996Z,95.60
2019-01-29T01:14:24.462Z,95.41
2019-01-29T01:16:52.895Z,95.25
2019-01-29T01:19:21.352Z,94.81
2019-01-29T01:21:49.800Z,94.72
2019-01-29T01:24:18.253Z,94.05
2019-01-29T01:26:46.676Z,93.27
2019-01-29T01:29:15.134Z,93.17
2019-01-29T01:31:43.683Z,93.17
2019-01-29T01:34:12.123Z,93.54
2019-01-29T01:36:40.557Z,94.12
2019-01-29T01:39:09.425Z,94.67
2019-01-29T01:41:37.911Z,95.25
2019-01-29T01:44:06.335Z,95.83
2019-01-29T01:46:34.795Z,96.30
2019-01-29T01:49:03.393Z,96.62
2019-01-29T01:51:33.085Z,96.54
2019-01-29T01:54:01.513Z,96.33
2019-01-29T01:56:29.975Z,96.13
2019-01-29T01:58:58.437Z,96.01
2019-01-29T02:01:26.889Z,96.17
2019-01-29T02:03:55.326Z,95.78
2019-01-29T02:06:23.825Z,95.80
2019-01-29T02:08:52.271Z,96.08
2019-01-29T02:11:20.731Z,95.95
2019-01-29T02:13:49.183Z,96.02
2019-01-29T02:16:17.636Z,95.81
2019-01-29T02:18:46.071Z,95.16
2019-01-29T02:21:14.821Z,95.13
2019-01-29T02:23:43.262Z,95.21
2019-01-29T02:26:11.701Z,94.92
2019-01-29T02:28:40.151Z,93.94
2019-01-29T02:31:08.597Z,93.63
2019-01-29T02:33:37.051Z,93.67
2019-01-29T02:36:05.491Z,93.53
2019-01-29T02:38:33.992Z,93.10
2019-01-29T02:41:02.438Z,93.04
2019-01-29T02:43:31.581Z,93.14
2019-01-29T02:46:00.014Z,92.60
2019-01-29T02:48:28.466Z,92.60
2019-01-29T02:50:56.968Z,92.25
2019-01-29T02:53:25.433Z,92.80
2019-01-29T02:55:53.875Z,92.89
2019-01-29T02:58:22.340Z,92.41
2019-01-29T03:00:50.779Z,91.69
2019-01-29T03:03:19.229Z,92.22
2019-01-29T03:05:47.646Z,92.43
2019-01-29T03:08:16.107Z,93.22
2019-01-29T03:10:44.538Z,93.89
2019-01-29T03:13:12.984Z,94.18
2019-01-29T03:15:41.413Z,93.92
2019-01-29T03:18:09.859Z,93.98
2019-01-29T03:20:38.303Z,94.25
2019-01-29T03:23:06.761Z,94.16
2019-01-29T03:25:35.221Z,94.20
2019-01-29T03:28:03.665Z,94.44
2019-01-29T03:30:32.085Z,94.44
2019-01-29T03:33:00.566Z,94.05
2019-01-29T03:35:29.010Z,93.83
2019-01-29T03:37:57.465Z,93.84
2019-01-29T03:40:27.366Z,94.39
2019-01-29T03:42:55.798Z,94.50
2019-01-29T03:45:24.410Z,94.25
2019-01-29T03:47:52.858Z,94.99
2019-01-29T03:50:23.072Z,95.79
2019-01-29T03:52:51.776Z,95.95
2019-01-29T03:55:20.271Z,96.07
2019-01-29T03:57:48.714Z,96.15
2019-01-29T04:00:22.570Z,96.01
2019-01-29T04:02:50.999Z,95.95
2019-01-29T04:05:19.506Z,96.15
2019-01-29T04:07:47.964Z,96.21
2019-01-29T04:10:17.270Z,95.90
2019-01-29T04:12:46.066Z,95.34
2019-01-29T04:15:16.763Z,94.73
2019-01-29T04:17:45.209Z,93.85
2019-01-29T04:20:16.557Z,93.82
2019-01-29T04:22:45.936Z,93.77
2019-01-29T04:25:14.673Z,93.67
2019-01-29T04:27:43.196Z,93.44
2019-01-29T04:30:17.535Z,93.42
2019-01-29T04:32:45.972Z,92.90
2019-01-29T04:35:14.614Z,92.80
2019-01-29T04:37:43.239Z,93.36
2019-01-29T04:40:16.622Z,93.67
2019-01-29T04:42:45.062Z,93.41
2019-01-29T04:45:15.167Z,93.23
2019-01-29T04:47:43.837Z,93.39
2019-01-29T04:50:14.884Z,93.07
2019-01-29T04:52:43.448Z,92.83
2019-01-29T04:55:14.116Z,91.64
2019-01-29T04:57:43.002Z,91.74
2019-01-29T05:00:14.442Z,90.93
2019-01-29T05:02:42.888Z,90.08
2019-01-29T05:05:12.318Z,90.76
2019-01-29T05:07:40.732Z,90.06
2019-01-29T05:10:14.683Z,89.65
2019-01-29T05:12:43.152Z,89.18
2019-01-29T05:15:19.274Z,89.16
2019-01-29T05:17:47.714Z,89.87
2019-01-29T05:20:21.096Z,89.33
2019-01-29T05:22:49.695Z,88.98
2019-01-29T05:25:18.486Z,89.04
2019-01-29T05:27:47.010Z,88.73
2019-01-29T05:30:21.028Z,88.61
2019-01-29T05:32:49.650Z,88.49
2019-01-29T05:35:18.263Z,87.81
2019-01-29T05:37:48.260Z,88.35
2019-01-29T05:40:18.747Z,88.68
2019-01-29T05:42:47.197Z,88.44
2019-01-29T05:45:18.303Z,88.06
2019-01-29T05:47:46.937Z,87.48
2019-01-29T05:50:16.133Z,87.22
2019-01-29T05:52:44.587Z,87.11
2019-01-29T05:55:14.612Z,87.07
2019-01-29T05:57:43.099Z,87.52
2019-01-29T06:00:15.119Z,87.62
2019-01-29T06:02:43.593Z,87.67
2019-01-29T06:05:12.463Z,87.43
2019-01-29T06:07:40.932Z,87.46
2019-01-29T06:10:15.151Z,87.15
2019-01-29T06:12:43.628Z,87.17
2019-01-29T06:15:17.544Z,86.55
2019-01-29T06:17:46.145Z,86.71
2019-01-29T06:20:18.563Z,87.26
2019-01-29T06:22:47.253Z,87.60
2019-01-29T06:25:15.759Z,87.01
2019-01-29T06:27:44.207Z,87.67
2019-01-29T06:30:15.639Z,86.96
2019-01-29T06:32:44.168Z,86.95
2019-01-29T06:35:14.941Z,87.06
2019-01-29T06:37:43.480Z,87.01
2019-01-29T06:40:14.663Z,87.11
2019-01-29T06:42:43.135Z,86.98
2019-01-29T06:45:14.267Z,86.74
2019-01-29T06:47:42.715Z,86.74
2019-01-29T06:50:13.907Z,87.45
2019-01-29T06:52:42.377Z,86.98
2019-01-29T06:55:13.871Z,86.82
2019-01-29T06:57:42.317Z,86.56
2019-01-29T07:00:13.830Z,86.72
2019-01-29T07:02:42.940Z,86.78
2019-01-29T07:05:11.533Z,87.00
2019-01-29T07:07:39.963Z,87.24
2019-01-29T07:10:16.691Z,86.98
2019-01-29T07:12:45.314Z,87.47
2019-01-29T07:15:18.320Z,86.71
2019-01-29T07:17:48.188Z,86.80
2019-01-29T07:20:16.640Z,86.68
2019-01-29T07:22:45.086Z,86.38
2019-01-29T07:25:14.034Z,86.29
2019-01-29T07:27:42.496Z,86.30
2019-01-29T07:30:13.932Z,86.77
2019-01-29T07:32:42.386Z,87.06
2019-01-29T07:35:10.927Z,87.46
2019-01-29T07:37:39.408Z,87.99
2019-01-29T07:40:10.095Z,88.09
2019-01-29T07:42:38.599Z,88.28
2019-01-29T07:45:10.100Z,88.69
2019-01-29T07:47:38.536Z,88.61
2019-01-29T07:50:09.648Z,88.73
2019-01-29T07:52:38.442Z,89.42
2019-01-29T07:55:09.172Z,89.91
2019-01-29T07:57:37.628Z,90.27
2019-01-29T08:00:14.659Z,89.77
2019-01-29T08:02:43.069Z,89.37
2019-01-29T08:05:12.462Z,89.12
2019-01-29T08:07:41.130Z,89.06
2019-01-29T08:10:15.286Z,89.18
2019-01-29T08:12:43.733Z,88.70
2019-01-29T08:15:14.846Z,88.85
2019-01-29T08:17:43.287Z,88.64
2019-01-29T08:20:13.491Z,88.50
2019-01-29T08:22:41.948Z,88.79
2019-01-29T08:25:11.283Z,89.14
2019-01-29T08:27:39.958Z,88.85
2019-01-29T08:30:19.499Z,88.92
2019-01-29T08:32:47.979Z,89.21
2019-01-29T08:35:17.842Z,89.37
2019-01-29T08:37:46.349Z,89.34
2019-01-29T08:40:16.779Z,89.22
2019-01-29T08:42:45.298Z,89.09
2019-01-29T08:45:20.618Z,89.19
2019-01-29T08:47:49.341Z,89.14
2019-01-29T08:50:25.827Z,88.78
2019-01-29T08:52:55.967Z,88.33
2019-01-29T08:55:24.626Z,87.42
2019-01-29T08:57:53.094Z,87.88
2019-01-29T09:00:22.692Z,87.65
2019-01-29T09:02:51.331Z,87.70
2019-01-29T09:05:19.783Z,87.71
2019-01-29T09:07:48.369Z,87.52
2019-01-29T09:10:18.552Z,87.03
2019-01-29T09:12:47.040Z,87.68
2019-01-29T09:15:17.522Z,87.37
2019-01-29T09:17:45.972Z,87.40
2019-01-29T09:20:17.308Z,87.54
2019-01-29T09:22:45.982Z,87.20
2019-01-29T09:25:21.110Z,87.01
2019-01-29T09:27:45.601Z,87.50
2019-01-29T09:30:18.794Z,87.26
2019-01-29T09:32:47.249Z,87.20
2019-01-29T09:35:15.687Z,86.99
2019-01-29T09:37:44.211Z,87.13
2019-01-29T09:40:15.546Z,87.06
2019-01-29T09:42:44.063Z,87.05
2019-01-29T09:45:15.257Z,87.16
2019-01-29T09:47:43.869Z,86.83
2019-01-29T09:50:15.506Z,86.99
2019-01-29T09:52:43.964Z,86.82
2019-01-29T09:55:15.173Z,86.77
2019-01-29T09:57:43.838Z,87.31
2019-01-29T10:00:21.651Z,87.48
2019-01-29T10:02:50.779Z,87.13
2019-01-29T10:05:19.239Z,87.21
2019-01-29T10:07:47.907Z,87.78
2019-01-29T10:10:16.723Z,87.79
2019-01-29T10:12:45.229Z,87.66
2019-01-29T10:15:19.782Z,87.26
2019-01-29T10:17:48.501Z,87.16
2019-01-29T10:20:17.316Z,87.18
2019-01-29T10:22:45.752Z,87.25
2019-01-29T10:25:15.182Z,86.51
2019-01-29T10:27:43.619Z,86.72
2019-01-29T10:30:15.153Z,85.84
2019-01-29T10:32:43.861Z,85.70
2019-01-29T10:35:15.353Z,85.06
2019-01-29T10:37:43.846Z,85.65
2019-01-29T10:40:15.284Z,85.61
2019-01-29T10:42:43.742Z,85.16
2019-01-29T10:45:15.030Z,84.58
2019-01-29T10:47:43.642Z,84.43
2019-01-29T10:50:20.772Z,84.67
2019-01-29T10:52:49.750Z,85.33
2019-01-29T10:55:18.474Z,85.29
2019-01-29T10:57:47.295Z,84.08
2019-01-29T11:00:18.499Z,84.12
2019-01-29T11:02:47.230Z,84.49
2019-01-29T11:05:18.465Z,84.58
2019-01-29T11:07:46.970Z,84.66
2019-01-29T11:10:19.828Z,86.03
2019-01-29T11:12:48.331Z,85.61
2019-01-29T11:15:22.898Z,85.06
2019-01-29T11:17:51.773Z,85.76
2019-01-29T11:20:20.619Z,85.15
2019-01-29T11:22:49.344Z,85.05
2019-01-29T11:25:20.728Z,85.14
2019-01-29T11:27:49.178Z,84.86
2019-01-29T11:30:20.722Z,85.19
2019-01-29T11:32:49.220Z,86.19
2019-01-29T11:35:17.673Z,87.38
2019-01-29T11:37:46.121Z,87.11
2019-01-29T11:40:25.997Z,87.41
2019-01-29T11:42:54.462Z,86.73
2019-01-29T11:45:28.478Z,86.00
2019-01-29T11:47:57.138Z,85.87
2019-01-29T11:50:25.585Z,85.62
2019-01-29T11:52:54.055Z,85.83
2019-01-29T11:55:22.621Z,85.63
2019-01-29T11:57:51.091Z,85.42
2019-01-29T12:00:27.098Z,85.53
2019-01-29T12:02:55.596Z,85.91
2019-01-29T12:05:24.040Z,85.96
2019-01-29T12:07:52.508Z,85.86
2019-01-29T12:10:20.956Z,86.32
2019-01-29T12:12:49.985Z,86.00
2019-01-29T12:15:20.644Z,86.15
2019-01-29T12:17:52.009Z,85.54
2019-01-29T12:20:21.221Z,84.17
2019-01-29T12:22:49.868Z,83.40
2019-01-29T12:25:18.630Z,82.43
2019-01-29T12:27:47.162Z,81.75
2019-01-29T12:30:21.525Z,81.09
2019-01-29T12:32:51.018Z,81.02
2019-01-29T12:35:19.986Z,80.09
2019-01-29T12:37:48.428Z,79.24
2019-01-29T12:40:17.051Z,78.89
2019-01-29T12:42:45.646Z,79.46
2019-01-29T12:45:16.542Z,80.09
2019-01-29T12:47:45.142Z,80.03
2019-01-29T12:50:27.951Z,79.41
2019-01-29T12:53:10.385Z,79.95
2019-01-29T12:55:39.177Z,78.72
2019-01-29T12:58:07.949Z,77.86
2019-01-29T13:00:38.214Z,78.04
2019-01-29T13:03:07.120Z,79.19
2019-01-29T13:05:35.582Z,78.91
2019-01-29T13:08:04.661Z,78.32
2019-01-29T13:10:33.113Z,77.87
2019-01-29T13:13:01.575Z,78.00
2019-01-29T13:15:32.441Z,77.23
2019-01-29T13:18:01.656Z,76.92
2019-01-29T13:20:30.770Z,76.74
2019-01-29T13:22:59.279Z,77.67
2019-01-29T13:25:27.754Z,78.29
2019-01-29T13:27:56.211Z,78.43
2019-01-29T13:30:37.757Z,78.73
2019-01-29T13:33:08.868Z,78.97
2019-01-29T13:35:38.639Z,79.06
2019-01-29T13:38:09.150Z,79.13
2019-01-29T13:40:37.686Z,79.44
2019-01-29T13:43:07.086Z,79.08
2019-01-29T13:45:35.800Z,78.39
2019-01-29T13:48:04.851Z,78.50
2019-01-29T13:50:36.276Z,78.96
2019-01-29T13:53:05.368Z,78.74
2019-01-29T13:55:35.468Z,78.28
2019-01-29T13:58:04.902Z,78.26
2019-01-29T14:00:35.278Z,78.37
2019-01-29T14:03:03.799Z,78.16
2019-01-29T14:05:32.247Z,77.92
2019-01-29T14:08:00.768Z,78.17
2019-01-29T14:10:29.390Z,78.40
2019-01-29T14:12:57.858Z,78.98
2019-01-29T14:15:31.126Z,79.17
2019-01-29T14:17:59.671Z,79.78
2019-01-29T14:20:28.127Z,79.84
2019-01-29T14:22:56.623Z,79.72
2019-01-29T14:25:25.243Z,79.61
2019-01-29T14:27:53.717Z,80.02
2019-01-29T14:30:29.953Z,79.93
2019-01-29T14:32:58.531Z,79.85
2019-01-29T14:35:27.053Z,80.05
2019-01-29T14:38:01.380Z,79.64
2019-01-29T14:40:31.194Z,79.82
2019-01-29T14:42:59.706Z,79.94
2019-01-29T14:45:32.241Z,79.90
2019-01-29T14:48:00.730Z,79.37
2019-01-29T14:50:29.603Z,79.75
2019-01-29T14:52:58.060Z,80.09
2019-01-29T14:55:26.676Z,80.44
2019-01-29T14:57:55.192Z,80.80
2019-01-29T15:00:37.523Z,80.83
2019-01-29T15:03:06.169Z,80.92
2019-01-29T15:05:34.631Z,81.61
2019-01-29T15:08:03.073Z,81.88
2019-01-29T15:10:32.474Z,81.58
2019-01-29T15:13:00.992Z,81.44
2019-01-29T15:15:36.237Z,81.89
2019-01-29T15:18:06.941Z,82.25
2019-01-29T15:20:35.403Z,82.06
2019-01-29T15:23:04.036Z,81.96
2019-01-29T15:25:32.512Z,82.29
2019-01-29T15:28:00.987Z,82.13
2019-01-29T15:30:31.575Z,82.42
2019-01-29T15:33:00.022Z,83.06
2019-01-29T15:35:28.492Z,83.11
2019-01-29T15:37:56.936Z,83.49
2019-01-29T15:40:25.415Z,83.46
2019-01-29T15:42:54.212Z,83.97
2019-01-29T15:45:26.217Z,84.79
2019-01-29T15:47:54.683Z,84.12
2019-01-29T15:50:24.578Z,84.49
2019-01-29T15:52:53.107Z,84.72
2019-01-29T15:55:22.121Z,84.97
2019-01-29T15:57:50.744Z,84.90
2019-01-29T16:00:27.977Z,85.19
2019-01-29T16:02:56.434Z,85.31
2019-01-29T16:05:33.183Z,85.42
2019-01-29T16:08:01.848Z,85.74
2019-01-29T16:10:39.538Z,85.32
2019-01-29T16:13:03.652Z,85.70
2019-01-29T16:15:32.663Z,86.02
2019-01-29T16:18:01.120Z,86.31
2019-01-29T16:20:30.030Z,86.45
2019-01-29T16:22:58.509Z,86.36
2019-01-29T16:25:29.731Z,86.49
2019-01-29T16:27:58.188Z,86.36
2019-01-29T16:30:28.701Z,86.63
2019-01-29T16:32:57.594Z,86.93
2019-01-29T16:35:31.685Z,86.86
2019-01-29T16:38:00.503Z,86.92
2019-01-29T16:40:32.124Z,86.86
2019-01-29T16:43:02.964Z,86.85
2019-01-29T16:45:35.783Z,86.95
2019-01-29T16:48:06.483Z,86.91
2019-01-29T16:50:34.985Z,86.94
2019-01-29T16:53:03.464Z,87.04
2019-01-29T16:55:32.080Z,87.19
2019-01-29T16:58:00.544Z,87.10
2019-01-29T17:00:31.133Z,86.98
2019-01-29T17:02:59.656Z,87.36
2019-01-29T17:05:29.364Z,87.45
2019-01-29T17:07:57.894Z,87.22
2019-01-29T17:10:28.301Z,87.14
2019-01-29T17:12:56.798Z,87.60
2019-01-29T17:15:30.220Z,88.04
2019-01-29T17:18:00.849Z,87.97
2019-01-29T17:20:35.084Z,87.90
2019-01-29T17:23:04.731Z,87.62
2019-01-29T17:25:33.299Z,87.67
2019-01-29T17:28:01.739Z,88.36
2019-01-29T17:30:42.088Z,88.38
2019-01-29T17:33:11.462Z,87.82
2019-01-29T17:35:40.956Z,88.14
2019-01-29T17:38:09.555Z,88.06
2019-01-29T17:40:38.007Z,88.12
2019-01-29T17:43:07.728Z,88.08
2019-01-29T17:45:38.877Z,87.99
2019-01-29T17:48:07.429Z,87.42
2019-01-29T17:50:38.429Z,87.79
2019-01-29T17:53:07.101Z,88.06
2019-01-29T17:55:37.091Z,88.09
2019-01-29T17:58:06.626Z,88.01
2019-01-29T18:00:36.892Z,87.84
2019-01-29T18:03:06.293Z,88.03
2019-01-29T18:05:35.067Z,88.22
2019-01-29T18:08:03.705Z,88.19
2019-01-29T18:10:32.185Z,88.52
2019-01-29T18:13:00.657Z,88.53
2019-01-29T18:15:31.179Z,88.45
2019-01-29T18:17:59.741Z,88.36
2019-01-29T18:20:28.553Z,88.58
2019-01-29T18:22:57.020Z,88.48
2019-01-29T18:25:25.751Z,88.75
2019-01-29T18:28:00.891Z,88.43
2019-01-29T18:30:30.118Z,88.27
2019-01-29T18:32:58.647Z,88.29
2019-01-29T18:35:27.207Z,88.28
2019-01-29T18:37:55.748Z,88.46
2019-01-29T18:40:36.132Z,88.39
2019-01-29T18:43:04.774Z,88.58
2019-01-29T18:45:33.273Z,88.34
2019-01-29T18:48:01.739Z,88.29
2019-01-29T18:50:30.258Z,87.61
2019-01-29T18:52:58.666Z,87.72
2019-01-29T18:55:27.165Z,87.98
2019-01-29T18:57:55.638Z,87.86
2019-01-29T19:00:26.062Z,87.98
2019-01-29T19:02:54.666Z,88.02
2019-01-29T19:05:27.382Z,87.85
2019-01-29T19:07:56.148Z,88.02
2019-01-29T19:10:25.195Z,88.27
2019-01-29T19:12:54.955Z,88.32
2019-01-29T19:15:25.950Z,88.17
2019-01-29T19:17:54.491Z,87.75
2019-01-29T19:20:25.258Z,87.39
2019-01-29T19:22:53.733Z,87.19
2019-01-29T19:25:22.727Z,87.39
2019-01-29T19:27:51.505Z,87.36
2019-01-29T19:30:22.348Z,87.10
2019-01-29T19:32:50.909Z,86.84
2019-01-29T19:35:19.413Z,87.24
2019-01-29T19:37:47.885Z,87.61
2019-01-29T19:40:18.262Z,87.31
2019-01-29T19:42:48.339Z,87.83
2019-01-29T19:45:19.989Z,87.85
2019-01-29T19:47:48.470Z,88.13
2019-01-29T19:50:19.768Z,88.24
2019-01-29T19:52:48.334Z,88.14
2019-01-29T19:55:16.823Z,87.73
2019-01-29T19:57:45.396Z,87.68
2019-01-29T20:00:22.416Z,88.08
2019-01-29T20:02:51.018Z,87.85
2019-01-29T20:05:19.725Z,87.65
2019-01-29T20:07:48.306Z,87.84
2019-01-29T20:10:20.385Z,88.33
2019-01-29T20:12:51.660Z,88.29
2019-01-29T20:15:22.485Z,87.90
2019-01-29T20:17:52.227Z,89.10
2019-01-29T20:20:23.237Z,89.13
2019-01-29T20:22:53.093Z,89.11
2019-01-29T20:25:21.593Z,88.84
2019-01-29T20:27:50.066Z,89.12
2019-01-29T20:30:27.144Z,89.28
2019-01-29T20:32:55.651Z,89.44
2019-01-29T20:35:24.294Z,89.36
2019-01-29T20:37:54.219Z,89.01
2019-01-29T20:40:23.841Z,89.11
2019-01-29T20:42:52.347Z,89.11
2019-01-29T20:45:20.969Z,89.15
2019-01-29T20:47:49.585Z,89.45
2019-01-29T20:50:23.980Z,89.82
2019-01-29T20:52:52.468Z,89.88
2019-01-29T20:55:22.838Z,90.25
2019-01-29T20:57:52.211Z,90.85
2019-01-29T21:00:26.281Z,90.83
2019-01-29T21:02:54.964Z,90.49
2019-01-29T21:05:23.552Z,90.85
2019-01-29T21:07:52.024Z,90.89
2019-01-29T21:10:23.083Z,90.78
2019-01-29T21:12:51.658Z,91.28
2019-01-29T21:15:22.709Z,91.55
2019-01-29T21:17:51.305Z,91.47
2019-01-29T21:20:22.028Z,91.42
2019-01-29T21:22:50.484Z,91.44
2019-01-29T21:25:19.667Z,91.77
2019-01-29T21:27:48.202Z,92.06
2019-01-29T21:30:25.443Z,91.93
2019-01-29T21:32:53.884Z,91.72
2019-01-29T21:35:22.378Z,91.59
2019-01-29T21:37:50.839Z,91.68
2019-01-29T21:40:19.495Z,92.20
2019-01-29T21:42:47.985Z,92.80
2019-01-29T21:45:21.353Z,92.92
2019-01-29T21:47:49.838Z,93.08
2019-01-29T21:50:23.760Z,92.99
2019-01-29T21:52:52.225Z,93.03
2019-01-29T21:55:20.979Z,93.19
2019-01-29T21:57:49.527Z,93.17
2019-01-29T22:00:21.042Z,93.01
2019-01-29T22:02:50.616Z,93.17
2019-01-29T22:05:19.142Z,93.28
2019-01-29T22:07:47.627Z,93.12
2019-01-29T22:10:16.955Z,93.19
2019-01-29T22:12:45.455Z,93.38
2019-01-29T22:15:22.890Z,93.65
2019-01-29T22:17:51.351Z,94.15
2019-01-29T22:20:24.437Z,94.69
2019-01-29T22:22:52.916Z,94.67
2019-01-29T22:25:23.615Z,94.73
2019-01-29T22:27:52.158Z,94.51
2019-01-29T22:30:23.626Z,94.84
2019-01-29T22:32:52.189Z,94.93
2019-01-29T22:35:20.726Z,95.53
2019-01-29T22:37:49.187Z,95.71
2019-01-29T22:40:25.413Z,96.02
2019-01-29T22:42:54.236Z,96.47
2019-01-29T22:45:22.685Z,96.76
2019-01-29T22:47:51.220Z,96.45
2019-01-29T22:50:28.410Z,96.31
2019-01-29T22:52:57.045Z,96.50
2019-01-29T22:55:25.717Z,96.82
2019-01-29T22:57:54.325Z,96.97
2019-01-29T23:00:35.606Z,97.12
2019-01-29T23:03:04.064Z,97.28
2019-01-29T23:05:35.186Z,97.48
2019-01-29T23:08:03.667Z,97.56
2019-01-29T23:10:32.261Z,97.37
2019-01-29T23:13:00.724Z,97.26
2019-01-29T23:15:29.186Z,97.40
2019-01-29T23:17:57.627Z,97.25
2019-01-29T23:20:26.437Z,97.06
2019-01-29T23:22:54.874Z,97.24
2019-01-29T23:25:23.343Z,97.48
2019-01-29T23:27:51.814Z,97.64
2019-01-29T23:30:21.628Z,97.98
2019-01-29T23:32:50.092Z,98.30
2019-01-29T23:35:18.622Z,98.35
2019-01-29T23:37:47.096Z,98.40
2019-01-29T23:40:16.894Z,98.59
2019-01-29T23:42:45.373Z,98.63
2019-01-29T23:45:15.166Z,98.54
2019-01-29T23:47:43.617Z,98.43
2019-01-29T23:50:14.502Z,98.32
2019-01-29T23:52:43.046Z,98.58
2019-01-29T23:55:12.427Z,98.63
2019-01-29T23:57:40.910Z,98.52
